sensor_id;sensor_type;location;lat;lon;timestamp;P1;durP1;ratioP1;P2;durP2;ratioP2
38318;SDS011;24121;53.536;10.224;2023-03-23T00:00:50;6.13;;;5.00;;
38318;SDS011;24121;53.536;10.224;2023-03-23T00:03:15;8.95;;;5.43;;
38318;SDS011;24121;53.536;10.224;2023-03-23T00:05:42;7.53;;;4.95;;
38318;SDS011;24121;53.536;10.224;2023-03-23T00:08:14;8.57;;;6.30;;
38318;SDS011;24121;53.536;10.224;2023-03-23T00:10:40;8.43;;;6.82;;
38318;SDS011;24121;53.536;10.224;2023-03-23T00:13:06;12.63;;;7.20;;
38318;SDS011;24121;53.536;10.224;2023-03-23T00:15:31;10.15;;;7.97;;
38318;SDS011;24121;53.536;10.224;2023-03-23T00:17:58;12.75;;;8.30;;
38318;SDS011;24121;53.536;10.224;2023-03-23T00:20:29;11.38;;;8.50;;
38318;SDS011;24121;53.536;10.224;2023-03-23T00:22:55;12.13;;;8.60;;
38318;SDS011;24121;53.536;10.224;2023-03-23T00:25:24;12.73;;;8.50;;
38318;SDS011;24121;53.536;10.224;2023-03-23T00:27:50;10.65;;;8.80;;
38318;SDS011;24121;53.536;10.224;2023-03-23T00:30:15;11.43;;;9.07;;
38318;SDS011;24121;53.536;10.224;2023-03-23T00:32:41;11.43;;;9.13;;
38318;SDS011;24121;53.536;10.224;2023-03-23T00:35:06;13.88;;;10.60;;
38318;SDS011;24121;53.536;10.224;2023-03-23T00:37:33;15.23;;;9.88;;
38318;SDS011;24121;53.536;10.224;2023-03-23T00:40:00;18.08;;;11.13;;
38318;SDS011;24121;53.536;10.224;2023-03-23T00:42:25;12.82;;;11.00;;
38318;SDS011;24121;53.536;10.224;2023-03-23T00:44:53;17.88;;;11.52;;
38318;SDS011;24121;53.536;10.224;2023-03-23T00:47:25;18.30;;;11.63;;
38318;SDS011;24121;53.536;10.224;2023-03-23T00:49:50;16.20;;;10.43;;
38318;SDS011;24121;53.536;10.224;2023-03-23T00:52:17;20.10;;;13.35;;
38318;SDS011;24121;53.536;10.224;2023-03-23T00:54:42;24.20;;;14.90;;
38318;SDS011;24121;53.536;10.224;2023-03-23T00:57:07;23.52;;;15.30;;
38318;SDS011;24121;53.536;10.224;2023-03-23T00:59:33;18.40;;;13.70;;
38318;SDS011;24121;53.536;10.224;2023-03-23T01:01:58;20.83;;;15.63;;
38318;SDS011;24121;53.536;10.224;2023-03-23T01:04:23;21.02;;;13.98;;
38318;SDS011;24121;53.536;10.224;2023-03-23T01:06:49;20.65;;;13.32;;
38318;SDS011;24121;53.536;10.224;2023-03-23T01:09:16;19.75;;;14.15;;
38318;SDS011;24121;53.536;10.224;2023-03-23T01:11:42;17.15;;;13.05;;
38318;SDS011;24121;53.536;10.224;2023-03-23T01:14:08;21.13;;;12.45;;
38318;SDS011;24121;53.536;10.224;2023-03-23T01:16:34;21.90;;;14.43;;
38318;SDS011;24121;53.536;10.224;2023-03-23T01:19:00;18.77;;;13.38;;
38318;SDS011;24121;53.536;10.224;2023-03-23T01:21:25;27.75;;;15.02;;
38318;SDS011;24121;53.536;10.224;2023-03-23T01:23:51;21.63;;;14.32;;
38318;SDS011;24121;53.536;10.224;2023-03-23T01:26:17;20.95;;;12.80;;
38318;SDS011;24121;53.536;10.224;2023-03-23T01:28:44;25.88;;;15.20;;
38318;SDS011;24121;53.536;10.224;2023-03-23T01:31:11;21.45;;;14.63;;
38318;SDS011;24121;53.536;10.224;2023-03-23T01:33:39;19.52;;;11.73;;
38318;SDS011;24121;53.536;10.224;2023-03-23T01:36:05;24.63;;;14.75;;
38318;SDS011;24121;53.536;10.224;2023-03-23T01:38:33;25.48;;;15.93;;
38318;SDS011;24121;53.536;10.224;2023-03-23T01:40:59;20.50;;;13.90;;
38318;SDS011;24121;53.536;10.224;2023-03-23T01:43:25;24.10;;;15.45;;
38318;SDS011;24121;53.536;10.224;2023-03-23T01:45:50;23.58;;;14.65;;
38318;SDS011;24121;53.536;10.224;2023-03-23T01:48:17;27.40;;;15.40;;
38318;SDS011;24121;53.536;10.224;2023-03-23T01:53:20;17.55;;;11.93;;
38318;SDS011;24121;53.536;10.224;2023-03-23T01:55:47;19.48;;;13.60;;
38318;SDS011;24121;53.536;10.224;2023-03-23T01:58:15;20.13;;;13.82;;
38318;SDS011;24121;53.536;10.224;2023-03-23T02:00:42;16.27;;;12.35;;
38318;SDS011;24121;53.536;10.224;2023-03-23T02:03:08;21.20;;;13.68;;
38318;SDS011;24121;53.536;10.224;2023-03-23T02:05:39;22.52;;;14.52;;
38318;SDS011;24121;53.536;10.224;2023-03-23T02:08:06;21.25;;;14.55;;
38318;SDS011;24121;53.536;10.224;2023-03-23T02:10:33;18.20;;;13.30;;
38318;SDS011;24121;53.536;10.224;2023-03-23T02:13:00;19.73;;;13.40;;
38318;SDS011;24121;53.536;10.224;2023-03-23T02:15:28;20.02;;;13.25;;
38318;SDS011;24121;53.536;10.224;2023-03-23T02:20:47;23.40;;;14.18;;
38318;SDS011;24121;53.536;10.224;2023-03-23T02:23:24;22.40;;;14.23;;
38318;SDS011;24121;53.536;10.224;2023-03-23T02:26:02;24.80;;;15.35;;
38318;SDS011;24121;53.536;10.224;2023-03-23T02:41:50;17.10;;;14.07;;
38318;SDS011;24121;53.536;10.224;2023-03-23T02:44:18;17.73;;;14.00;;
38318;SDS011;24121;53.536;10.224;2023-03-23T02:46:43;20.23;;;15.20;;
38318;SDS011;24121;53.536;10.224;2023-03-23T02:49:09;23.13;;;15.18;;
38318;SDS011;24121;53.536;10.224;2023-03-23T02:51:37;22.48;;;16.65;;
38318;SDS011;24121;53.536;10.224;2023-03-23T02:54:03;28.45;;;17.67;;
38318;SDS011;24121;53.536;10.224;2023-03-23T02:56:29;22.95;;;14.02;;
38318;SDS011;24121;53.536;10.224;2023-03-23T02:58:55;30.08;;;16.60;;
38318;SDS011;24121;53.536;10.224;2023-03-23T03:03:58;21.98;;;16.17;;
38318;SDS011;24121;53.536;10.224;2023-03-23T03:11:56;20.08;;;14.90;;
38318;SDS011;24121;53.536;10.224;2023-03-23T03:14:27;16.98;;;12.23;;
38318;SDS011;24121;53.536;10.224;2023-03-23T03:17:03;11.73;;;10.35;;
38318;SDS011;24121;53.536;10.224;2023-03-23T03:19:35;22.13;;;15.13;;
38318;SDS011;24121;53.536;10.224;2023-03-23T03:22:03;23.73;;;16.50;;
38318;SDS011;24121;53.536;10.224;2023-03-23T03:24:29;20.02;;;15.82;;
38318;SDS011;24121;53.536;10.224;2023-03-23T03:26:56;33.97;;;19.67;;
38318;SDS011;24121;53.536;10.224;2023-03-23T03:29:28;21.60;;;14.02;;
38318;SDS011;24121;53.536;10.224;2023-03-23T03:31:56;15.20;;;13.23;;
38318;SDS011;24121;53.536;10.224;2023-03-23T03:34:23;17.73;;;14.90;;
38318;SDS011;24121;53.536;10.224;2023-03-23T03:36:49;28.88;;;17.55;;
38318;SDS011;24121;53.536;10.224;2023-03-23T03:39:17;22.75;;;15.05;;
38318;SDS011;24121;53.536;10.224;2023-03-23T03:41:44;20.73;;;14.50;;
38318;SDS011;24121;53.536;10.224;2023-03-23T03:44:10;36.38;;;19.60;;
38318;SDS011;24121;53.536;10.224;2023-03-23T03:46:35;24.77;;;16.00;;
38318;SDS011;24121;53.536;10.224;2023-03-23T03:49:02;19.60;;;14.25;;
38318;SDS011;24121;53.536;10.224;2023-03-23T03:51:29;23.75;;;14.77;;
38318;SDS011;24121;53.536;10.224;2023-03-23T03:53:54;22.48;;;15.40;;
38318;SDS011;24121;53.536;10.224;2023-03-23T03:56:22;20.90;;;15.25;;
38318;SDS011;24121;53.536;10.224;2023-03-23T03:58:48;16.23;;;12.40;;
38318;SDS011;24121;53.536;10.224;2023-03-23T04:01:14;16.73;;;14.23;;
38318;SDS011;24121;53.536;10.224;2023-03-23T04:03:40;19.33;;;14.05;;
38318;SDS011;24121;53.536;10.224;2023-03-23T04:06:06;20.67;;;14.27;;
38318;SDS011;24121;53.536;10.224;2023-03-23T04:08:33;18.55;;;14.40;;
38318;SDS011;24121;53.536;10.224;2023-03-23T04:10:59;14.57;;;12.50;;
38318;SDS011;24121;53.536;10.224;2023-03-23T04:13:25;18.52;;;13.65;;
38318;SDS011;24121;53.536;10.224;2023-03-23T04:15:50;16.42;;;12.65;;
38318;SDS011;24121;53.536;10.224;2023-03-23T04:18:16;18.25;;;13.63;;
38318;SDS011;24121;53.536;10.224;2023-03-23T04:20:43;19.95;;;15.60;;
38318;SDS011;24121;53.536;10.224;2023-03-23T04:23:09;17.35;;;14.43;;
38318;SDS011;24121;53.536;10.224;2023-03-23T04:25:35;19.45;;;15.43;;
38318;SDS011;24121;53.536;10.224;2023-03-23T04:28:00;19.30;;;15.70;;
38318;SDS011;24121;53.536;10.224;2023-03-23T04:30:26;20.10;;;16.23;;
38318;SDS011;24121;53.536;10.224;2023-03-23T04:32:52;18.23;;;14.05;;
38318;SDS011;24121;53.536;10.224;2023-03-23T04:35:20;20.50;;;15.05;;
38318;SDS011;24121;53.536;10.224;2023-03-23T04:37:47;20.83;;;17.38;;
38318;SDS011;24121;53.536;10.224;2023-03-23T04:40:13;25.88;;;18.70;;
38318;SDS011;24121;53.536;10.224;2023-03-23T04:42:40;18.50;;;14.98;;
38318;SDS011;24121;53.536;10.224;2023-03-23T04:45:06;18.75;;;15.10;;
38318;SDS011;24121;53.536;10.224;2023-03-23T04:47:33;16.55;;;13.45;;
38318;SDS011;24121;53.536;10.224;2023-03-23T04:50:04;19.52;;;14.10;;
38318;SDS011;24121;53.536;10.224;2023-03-23T04:52:31;21.98;;;15.85;;
38318;SDS011;24121;53.536;10.224;2023-03-23T04:54:56;18.63;;;14.25;;
38318;SDS011;24121;53.536;10.224;2023-03-23T04:57:22;15.85;;;14.25;;
38318;SDS011;24121;53.536;10.224;2023-03-23T05:02:17;15.75;;;13.65;;
38318;SDS011;24121;53.536;10.224;2023-03-23T05:04:43;19.23;;;14.15;;
38318;SDS011;24121;53.536;10.224;2023-03-23T05:07:10;17.40;;;13.90;;
38318;SDS011;24121;53.536;10.224;2023-03-23T05:09:35;17.60;;;14.73;;
38318;SDS011;24121;53.536;10.224;2023-03-23T05:12:07;14.98;;;13.30;;
38318;SDS011;24121;53.536;10.224;2023-03-23T05:14:34;16.80;;;12.65;;
38318;SDS011;24121;53.536;10.224;2023-03-23T05:16:59;16.77;;;13.75;;
38318;SDS011;24121;53.536;10.224;2023-03-23T05:19:25;20.33;;;15.32;;
38318;SDS011;24121;53.536;10.224;2023-03-23T05:21:52;19.48;;;14.25;;
38318;SDS011;24121;53.536;10.224;2023-03-23T05:24:18;15.40;;;13.88;;
38318;SDS011;24121;53.536;10.224;2023-03-23T05:26:44;15.63;;;12.93;;
38318;SDS011;24121;53.536;10.224;2023-03-23T05:29:13;16.58;;;13.48;;
38318;SDS011;24121;53.536;10.224;2023-03-23T05:31:39;17.70;;;13.73;;
38318;SDS011;24121;53.536;10.224;2023-03-23T05:34:04;19.35;;;12.48;;
38318;SDS011;24121;53.536;10.224;2023-03-23T05:36:30;12.68;;;10.50;;
38318;SDS011;24121;53.536;10.224;2023-03-23T05:38:55;12.63;;;10.85;;
38318;SDS011;24121;53.536;10.224;2023-03-23T05:41:21;14.23;;;9.93;;
38318;SDS011;24121;53.536;10.224;2023-03-23T05:43:48;14.50;;;9.48;;
38318;SDS011;24121;53.536;10.224;2023-03-23T05:46:13;14.88;;;9.70;;
38318;SDS011;24121;53.536;10.224;2023-03-23T05:48:39;14.15;;;10.43;;
38318;SDS011;24121;53.536;10.224;2023-03-23T05:51:04;14.40;;;8.70;;
38318;SDS011;24121;53.536;10.224;2023-03-23T05:53:30;12.63;;;10.48;;
38318;SDS011;24121;53.536;10.224;2023-03-23T05:55:59;15.40;;;9.85;;
38318;SDS011;24121;53.536;10.224;2023-03-23T05:58:25;10.88;;;8.23;;
38318;SDS011;24121;53.536;10.224;2023-03-23T06:00:50;11.57;;;8.65;;
38318;SDS011;24121;53.536;10.224;2023-03-23T06:03:16;10.38;;;7.80;;
38318;SDS011;24121;53.536;10.224;2023-03-23T06:05:42;9.45;;;7.15;;
38318;SDS011;24121;53.536;10.224;2023-03-23T06:08:10;7.07;;;6.38;;
38318;SDS011;24121;53.536;10.224;2023-03-23T06:10:36;14.32;;;7.95;;
38318;SDS011;24121;53.536;10.224;2023-03-23T06:13:02;11.20;;;7.68;;
38318;SDS011;24121;53.536;10.224;2023-03-23T06:15:28;11.05;;;7.25;;
38318;SDS011;24121;53.536;10.224;2023-03-23T06:17:58;9.13;;;6.82;;
38318;SDS011;24121;53.536;10.224;2023-03-23T06:20:23;10.13;;;7.03;;
38318;SDS011;24121;53.536;10.224;2023-03-23T06:22:49;11.27;;;6.75;;
38318;SDS011;24121;53.536;10.224;2023-03-23T06:25:15;8.05;;;6.78;;
38318;SDS011;24121;53.536;10.224;2023-03-23T06:27:41;10.80;;;6.65;;
38318;SDS011;24121;53.536;10.224;2023-03-23T06:30:06;7.68;;;6.22;;
38318;SDS011;24121;53.536;10.224;2023-03-23T06:32:32;9.45;;;6.07;;
38318;SDS011;24121;53.536;10.224;2023-03-23T06:34:58;9.73;;;6.53;;
38318;SDS011;24121;53.536;10.224;2023-03-23T06:37:24;10.05;;;6.47;;
38318;SDS011;24121;53.536;10.224;2023-03-23T06:39:49;8.38;;;5.68;;
38318;SDS011;24121;53.536;10.224;2023-03-23T06:42:16;7.03;;;5.00;;
38318;SDS011;24121;53.536;10.224;2023-03-23T06:44:43;8.52;;;5.38;;
38318;SDS011;24121;53.536;10.224;2023-03-23T06:47:08;9.40;;;6.22;;
38318;SDS011;24121;53.536;10.224;2023-03-23T06:49:34;6.43;;;4.95;;
38318;SDS011;24121;53.536;10.224;2023-03-23T06:51:59;6.47;;;4.40;;
38318;SDS011;24121;53.536;10.224;2023-03-23T06:54:26;6.65;;;4.55;;
38318;SDS011;24121;53.536;10.224;2023-03-23T06:56:52;4.97;;;4.05;;
38318;SDS011;24121;53.536;10.224;2023-03-23T06:59:17;4.60;;;3.67;;
38318;SDS011;24121;53.536;10.224;2023-03-23T07:01:42;6.55;;;3.95;;
38318;SDS011;24121;53.536;10.224;2023-03-23T07:04:08;7.15;;;4.50;;
38318;SDS011;24121;53.536;10.224;2023-03-23T07:06:33;8.20;;;4.32;;
38318;SDS011;24121;53.536;10.224;2023-03-23T07:08:58;6.07;;;4.10;;
38318;SDS011;24121;53.536;10.224;2023-03-23T07:11:24;3.72;;;3.38;;
38318;SDS011;24121;53.536;10.224;2023-03-23T07:13:50;5.25;;;3.40;;
38318;SDS011;24121;53.536;10.224;2023-03-23T07:16:15;5.53;;;3.75;;
38318;SDS011;24121;53.536;10.224;2023-03-23T07:18:42;3.95;;;3.55;;
38318;SDS011;24121;53.536;10.224;2023-03-23T07:21:07;5.45;;;3.60;;
38318;SDS011;24121;53.536;10.224;2023-03-23T07:23:32;4.63;;;3.38;;
38318;SDS011;24121;53.536;10.224;2023-03-23T07:25:58;6.78;;;3.45;;
38318;SDS011;24121;53.536;10.224;2023-03-23T07:28:23;5.75;;;3.92;;
38318;SDS011;24121;53.536;10.224;2023-03-23T07:30:49;5.22;;;3.17;;
38318;SDS011;24121;53.536;10.224;2023-03-23T07:33:14;7.53;;;3.60;;
38318;SDS011;24121;53.536;10.224;2023-03-23T07:35:40;4.20;;;3.78;;
38318;SDS011;24121;53.536;10.224;2023-03-23T07:38:06;5.07;;;3.17;;
38318;SDS011;24121;53.536;10.224;2023-03-23T07:40:32;6.30;;;3.20;;
38318;SDS011;24121;53.536;10.224;2023-03-23T07:43:00;4.88;;;3.00;;
38318;SDS011;24121;53.536;10.224;2023-03-23T07:45:26;4.60;;;2.90;;
38318;SDS011;24121;53.536;10.224;2023-03-23T07:47:52;4.47;;;3.78;;
38318;SDS011;24121;53.536;10.224;2023-03-23T07:50:18;3.78;;;3.00;;
38318;SDS011;24121;53.536;10.224;2023-03-23T07:52:46;4.32;;;3.28;;
38318;SDS011;24121;53.536;10.224;2023-03-23T07:55:11;5.57;;;3.80;;
38318;SDS011;24121;53.536;10.224;2023-03-23T07:57:42;4.28;;;3.00;;
38318;SDS011;24121;53.536;10.224;2023-03-23T08:00:08;4.63;;;3.47;;
38318;SDS011;24121;53.536;10.224;2023-03-23T08:02:38;3.72;;;2.92;;
38318;SDS011;24121;53.536;10.224;2023-03-23T08:05:04;4.63;;;3.53;;
38318;SDS011;24121;53.536;10.224;2023-03-23T08:07:30;4.68;;;3.80;;
38318;SDS011;24121;53.536;10.224;2023-03-23T08:09:55;4.40;;;3.78;;
38318;SDS011;24121;53.536;10.224;2023-03-23T08:12:20;4.82;;;3.50;;
38318;SDS011;24121;53.536;10.224;2023-03-23T08:14:46;5.55;;;3.92;;
38318;SDS011;24121;53.536;10.224;2023-03-23T08:17:13;4.85;;;3.80;;
38318;SDS011;24121;53.536;10.224;2023-03-23T08:19:39;4.53;;;3.53;;
38318;SDS011;24121;53.536;10.224;2023-03-23T08:22:05;4.50;;;3.65;;
38318;SDS011;24121;53.536;10.224;2023-03-23T08:24:31;4.75;;;4.15;;
38318;SDS011;24121;53.536;10.224;2023-03-23T08:26:57;5.95;;;4.60;;
38318;SDS011;24121;53.536;10.224;2023-03-23T08:29:23;5.45;;;4.72;;
38318;SDS011;24121;53.536;10.224;2023-03-23T08:31:48;6.57;;;5.22;;
38318;SDS011;24121;53.536;10.224;2023-03-23T08:34:13;7.65;;;5.45;;
38318;SDS011;24121;53.536;10.224;2023-03-23T08:36:40;6.25;;;5.70;;
38318;SDS011;24121;53.536;10.224;2023-03-23T08:39:08;5.60;;;4.97;;
38318;SDS011;24121;53.536;10.224;2023-03-23T08:41:33;6.00;;;5.28;;
38318;SDS011;24121;53.536;10.224;2023-03-23T08:43:59;6.57;;;5.85;;
38318;SDS011;24121;53.536;10.224;2023-03-23T08:46:24;6.47;;;5.65;;
38318;SDS011;24121;53.536;10.224;2023-03-23T08:48:49;6.03;;;5.00;;
38318;SDS011;24121;53.536;10.224;2023-03-23T08:51:15;6.07;;;4.80;;
38318;SDS011;24121;53.536;10.224;2023-03-23T08:53:41;6.13;;;4.82;;
38318;SDS011;24121;53.536;10.224;2023-03-23T08:56:09;6.78;;;5.00;;
38318;SDS011;24121;53.536;10.224;2023-03-23T08:58:35;5.43;;;4.20;;
38318;SDS011;24121;53.536;10.224;2023-03-23T09:01:01;3.50;;;3.20;;
38318;SDS011;24121;53.536;10.224;2023-03-23T09:03:27;5.95;;;3.15;;
38318;SDS011;24121;53.536;10.224;2023-03-23T09:05:53;5.93;;;3.30;;
38318;SDS011;24121;53.536;10.224;2023-03-23T09:08:18;3.85;;;2.47;;
38318;SDS011;24121;53.536;10.224;2023-03-23T09:10:44;3.67;;;1.80;;
38318;SDS011;24121;53.536;10.224;2023-03-23T09:13:09;4.43;;;1.90;;
38318;SDS011;24121;53.536;10.224;2023-03-23T09:15:35;4.88;;;1.80;;
38318;SDS011;24121;53.536;10.224;2023-03-23T09:18:00;4.07;;;1.73;;
38318;SDS011;24121;53.536;10.224;2023-03-23T09:20:27;4.28;;;1.77;;
38318;SDS011;24121;53.536;10.224;2023-03-23T09:22:53;7.55;;;1.90;;
38318;SDS011;24121;53.536;10.224;2023-03-23T09:25:20;4.68;;;1.73;;
38318;SDS011;24121;53.536;10.224;2023-03-23T09:27:51;3.28;;;1.63;;
38318;SDS011;24121;53.536;10.224;2023-03-23T09:30:21;4.15;;;2.00;;
38318;SDS011;24121;53.536;10.224;2023-03-23T09:32:47;6.15;;;1.67;;
38318;SDS011;24121;53.536;10.224;2023-03-23T09:35:13;4.65;;;1.85;;
38318;SDS011;24121;53.536;10.224;2023-03-23T09:37:41;6.32;;;1.90;;
38318;SDS011;24121;53.536;10.224;2023-03-23T09:40:09;5.07;;;1.92;;
38318;SDS011;24121;53.536;10.224;2023-03-23T09:50:58;6.50;;;1.83;;
38318;SDS011;24121;53.536;10.224;2023-03-23T09:53:29;5.18;;;1.88;;
38318;SDS011;24121;53.536;10.224;2023-03-23T09:56:00;7.28;;;2.55;;
38318;SDS011;24121;53.536;10.224;2023-03-23T09:58:31;8.43;;;2.03;;
38318;SDS011;24121;53.536;10.224;2023-03-23T10:01:02;8.77;;;2.50;;
38318;SDS011;24121;53.536;10.224;2023-03-23T10:03:42;9.20;;;2.50;;
38318;SDS011;24121;53.536;10.224;2023-03-23T10:06:09;6.55;;;1.95;;
38318;SDS011;24121;53.536;10.224;2023-03-23T10:08:45;4.95;;;2.20;;
38318;SDS011;24121;53.536;10.224;2023-03-23T10:11:22;11.85;;;2.60;;
38318;SDS011;24121;53.536;10.224;2023-03-23T10:16:30;11.48;;;2.63;;
38318;SDS011;24121;53.536;10.224;2023-03-23T10:19:04;11.48;;;2.78;;
38318;SDS011;24121;53.536;10.224;2023-03-23T10:21:30;10.38;;;3.13;;
38318;SDS011;24121;53.536;10.224;2023-03-23T10:23:59;7.13;;;2.30;;
38318;SDS011;24121;53.536;10.224;2023-03-23T10:26:33;10.05;;;2.58;;
38318;SDS011;24121;53.536;10.224;2023-03-23T10:29:13;8.52;;;2.30;;
38318;SDS011;24121;53.536;10.224;2023-03-23T10:31:49;8.60;;;2.63;;
38318;SDS011;24121;53.536;10.224;2023-03-23T10:34:40;8.35;;;2.38;;
38318;SDS011;24121;53.536;10.224;2023-03-23T10:37:10;8.10;;;2.00;;
38318;SDS011;24121;53.536;10.224;2023-03-23T10:39:43;10.07;;;2.27;;
38318;SDS011;24121;53.536;10.224;2023-03-23T10:42:21;8.07;;;2.22;;
38318;SDS011;24121;53.536;10.224;2023-03-23T10:44:51;12.20;;;2.85;;
38318;SDS011;24121;53.536;10.224;2023-03-23T10:47:17;12.10;;;2.60;;
38318;SDS011;24121;53.536;10.224;2023-03-23T10:52:43;10.43;;;2.47;;
38318;SDS011;24121;53.536;10.224;2023-03-23T10:55:22;12.50;;;2.55;;
38318;SDS011;24121;53.536;10.224;2023-03-23T10:58:05;10.43;;;2.75;;
38318;SDS011;24121;53.536;10.224;2023-03-23T11:00:32;7.43;;;2.08;;
38318;SDS011;24121;53.536;10.224;2023-03-23T11:02:59;8.38;;;2.33;;
38318;SDS011;24121;53.536;10.224;2023-03-23T11:05:26;11.45;;;2.50;;
38318;SDS011;24121;53.536;10.224;2023-03-23T11:08:01;9.38;;;2.53;;
38318;SDS011;24121;53.536;10.224;2023-03-23T11:10:37;6.75;;;2.55;;
38318;SDS011;24121;53.536;10.224;2023-03-23T11:13:09;7.97;;;2.40;;
38318;SDS011;24121;53.536;10.224;2023-03-23T11:15:39;8.73;;;2.80;;
38318;SDS011;24121;53.536;10.224;2023-03-23T11:18:06;11.63;;;2.78;;
38318;SDS011;24121;53.536;10.224;2023-03-23T11:20:42;8.32;;;3.15;;
38318;SDS011;24121;53.536;10.224;2023-03-23T11:23:18;9.45;;;2.50;;
38318;SDS011;24121;53.536;10.224;2023-03-23T11:31:16;9.65;;;2.60;;
38318;SDS011;24121;53.536;10.224;2023-03-23T11:36:30;12.13;;;2.90;;
38318;SDS011;24121;53.536;10.224;2023-03-23T11:38:57;9.93;;;3.10;;
38318;SDS011;24121;53.536;10.224;2023-03-23T11:41:23;8.80;;;2.72;;
38318;SDS011;24121;53.536;10.224;2023-03-23T11:43:51;14.45;;;3.00;;
38318;SDS011;24121;53.536;10.224;2023-03-23T11:46:32;11.35;;;3.22;;
38318;SDS011;24121;53.536;10.224;2023-03-23T11:49:05;10.52;;;3.13;;
38318;SDS011;24121;53.536;10.224;2023-03-23T11:51:51;9.35;;;3.58;;
38318;SDS011;24121;53.536;10.224;2023-03-23T11:54:34;12.85;;;3.08;;
38318;SDS011;24121;53.536;10.224;2023-03-23T11:57:09;9.50;;;3.22;;
38318;SDS011;24121;53.536;10.224;2023-03-23T11:59:37;12.15;;;3.25;;
38318;SDS011;24121;53.536;10.224;2023-03-23T12:07:27;7.05;;;3.10;;
38318;SDS011;24121;53.536;10.224;2023-03-23T12:15:29;9.27;;;3.13;;
38318;SDS011;24121;53.536;10.224;2023-03-23T12:18:19;6.85;;;2.38;;
38318;SDS011;24121;53.536;10.224;2023-03-23T12:26:30;10.45;;;3.13;;
38318;SDS011;24121;53.536;10.224;2023-03-23T12:29:06;9.27;;;3.10;;
38318;SDS011;24121;53.536;10.224;2023-03-23T12:31:56;8.20;;;2.72;;
38318;SDS011;24121;53.536;10.224;2023-03-23T12:40:24;9.63;;;3.10;;
38318;SDS011;24121;53.536;10.224;2023-03-23T12:48:10;8.82;;;3.13;;
38318;SDS011;24121;53.536;10.224;2023-03-23T12:56:03;7.85;;;2.75;;
38318;SDS011;24121;53.536;10.224;2023-03-23T12:59:29;11.93;;;3.33;;
38318;SDS011;24121;53.536;10.224;2023-03-23T13:01:51;7.40;;;3.13;;
38318;SDS011;24121;53.536;10.224;2023-03-23T13:04:22;11.15;;;3.20;;
38318;SDS011;24121;53.536;10.224;2023-03-23T13:06:51;8.02;;;3.13;;
38318;SDS011;24121;53.536;10.224;2023-03-23T13:11:52;9.52;;;3.05;;
38318;SDS011;24121;53.536;10.224;2023-03-23T13:14:21;8.07;;;3.33;;
38318;SDS011;24121;53.536;10.224;2023-03-23T13:17:06;9.70;;;3.10;;
38318;SDS011;24121;53.536;10.224;2023-03-23T13:22:35;7.55;;;2.72;;
38318;SDS011;24121;53.536;10.224;2023-03-23T13:25:06;7.80;;;2.88;;
38318;SDS011;24121;53.536;10.224;2023-03-23T13:27:34;11.38;;;3.78;;
38318;SDS011;24121;53.536;10.224;2023-03-23T13:30:00;8.10;;;2.90;;
38318;SDS011;24121;53.536;10.224;2023-03-23T13:32:39;8.93;;;3.70;;
38318;SDS011;24121;53.536;10.224;2023-03-23T13:35:13;7.40;;;3.30;;
38318;SDS011;24121;53.536;10.224;2023-03-23T13:37:45;8.43;;;2.95;;
38318;SDS011;24121;53.536;10.224;2023-03-23T13:40:25;9.07;;;3.55;;
38318;SDS011;24121;53.536;10.224;2023-03-23T13:42:53;7.25;;;2.80;;
38318;SDS011;24121;53.536;10.224;2023-03-23T13:45:21;5.78;;;2.63;;
38318;SDS011;24121;53.536;10.224;2023-03-23T13:50:44;6.40;;;2.92;;
38318;SDS011;24121;53.536;10.224;2023-03-23T13:53:21;5.32;;;2.67;;
38318;SDS011;24121;53.536;10.224;2023-03-23T13:56:21;6.28;;;2.47;;
38318;SDS011;24121;53.536;10.224;2023-03-23T13:59:12;4.38;;;1.88;;
38318;SDS011;24121;53.536;10.224;2023-03-23T14:01:39;5.18;;;2.42;;
38318;SDS011;24121;53.536;10.224;2023-03-23T14:04:07;4.07;;;2.30;;
38318;SDS011;24121;53.536;10.224;2023-03-23T14:06:36;4.47;;;1.88;;
38318;SDS011;24121;53.536;10.224;2023-03-23T14:12:02;3.63;;;1.63;;
38318;SDS011;24121;53.536;10.224;2023-03-23T14:14:38;6.57;;;1.90;;
38318;SDS011;24121;53.536;10.224;2023-03-23T14:17:15;4.57;;;1.90;;
38318;SDS011;24121;53.536;10.224;2023-03-23T14:19:41;5.28;;;1.60;;
38318;SDS011;24121;53.536;10.224;2023-03-23T14:22:17;3.78;;;1.75;;
38318;SDS011;24121;53.536;10.224;2023-03-23T14:27:40;5.28;;;1.80;;
38318;SDS011;24121;53.536;10.224;2023-03-23T14:30:07;7.03;;;2.53;;
38318;SDS011;24121;53.536;10.224;2023-03-23T14:32:38;2.50;;;1.38;;
38318;SDS011;24121;53.536;10.224;2023-03-23T14:35:05;4.47;;;1.75;;
38318;SDS011;24121;53.536;10.224;2023-03-23T14:40:00;3.30;;;1.40;;
38318;SDS011;24121;53.536;10.224;2023-03-23T14:42:29;3.60;;;1.73;;
38318;SDS011;24121;53.536;10.224;2023-03-23T14:44:55;3.95;;;1.40;;
38318;SDS011;24121;53.536;10.224;2023-03-23T14:47:25;6.47;;;2.10;;
38318;SDS011;24121;53.536;10.224;2023-03-23T14:49:53;3.78;;;1.52;;
38318;SDS011;24121;53.536;10.224;2023-03-23T14:52:21;6.38;;;2.17;;
38318;SDS011;24121;53.536;10.224;2023-03-23T14:54:48;5.68;;;2.17;;
38318;SDS011;24121;53.536;10.224;2023-03-23T14:57:15;5.03;;;2.00;;
38318;SDS011;24121;53.536;10.224;2023-03-23T14:59:53;4.57;;;1.77;;
38318;SDS011;24121;53.536;10.224;2023-03-23T15:02:23;4.63;;;1.77;;
38318;SDS011;24121;53.536;10.224;2023-03-23T15:05:12;4.25;;;1.77;;
38318;SDS011;24121;53.536;10.224;2023-03-23T15:07:56;3.38;;;1.55;;
38318;SDS011;24121;53.536;10.224;2023-03-23T15:10:26;5.85;;;1.73;;
38318;SDS011;24121;53.536;10.224;2023-03-23T15:12:52;4.63;;;1.90;;
38318;SDS011;24121;53.536;10.224;2023-03-23T15:15:25;5.18;;;1.58;;
38318;SDS011;24121;53.536;10.224;2023-03-23T15:17:58;6.38;;;1.67;;
38318;SDS011;24121;53.536;10.224;2023-03-23T15:22:51;5.03;;;1.40;;
38318;SDS011;24121;53.536;10.224;2023-03-23T15:25:19;4.63;;;1.52;;
38318;SDS011;24121;53.536;10.224;2023-03-23T15:27:55;3.40;;;1.83;;
38318;SDS011;24121;53.536;10.224;2023-03-23T15:32:47;5.90;;;1.83;;
38318;SDS011;24121;53.536;10.224;2023-03-23T15:35:20;5.88;;;1.85;;
38318;SDS011;24121;53.536;10.224;2023-03-23T15:37:48;5.50;;;1.83;;
38318;SDS011;24121;53.536;10.224;2023-03-23T15:40:26;7.97;;;2.13;;
38318;SDS011;24121;53.536;10.224;2023-03-23T15:43:14;3.90;;;1.75;;
38318;SDS011;24121;53.536;10.224;2023-03-23T15:45:51;6.97;;;2.38;;
38318;SDS011;24121;53.536;10.224;2023-03-23T15:48:18;4.28;;;2.20;;
38318;SDS011;24121;53.536;10.224;2023-03-23T15:50:45;6.18;;;1.52;;
38318;SDS011;24121;53.536;10.224;2023-03-23T15:56:03;7.90;;;2.22;;
38318;SDS011;24121;53.536;10.224;2023-03-23T15:58:30;6.80;;;2.42;;
38318;SDS011;24121;53.536;10.224;2023-03-23T16:00:55;8.57;;;2.17;;
38318;SDS011;24121;53.536;10.224;2023-03-23T16:03:22;3.55;;;1.30;;
38318;SDS011;24121;53.536;10.224;2023-03-23T16:05:51;3.95;;;1.35;;
38318;SDS011;24121;53.536;10.224;2023-03-23T16:08:17;3.28;;;1.25;;
38318;SDS011;24121;53.536;10.224;2023-03-23T16:10:43;4.47;;;1.80;;
38318;SDS011;24121;53.536;10.224;2023-03-23T16:13:08;3.60;;;1.30;;
38318;SDS011;24121;53.536;10.224;2023-03-23T16:15:33;4.95;;;1.35;;
38318;SDS011;24121;53.536;10.224;2023-03-23T16:17:58;5.00;;;1.23;;
38318;SDS011;24121;53.536;10.224;2023-03-23T16:20:24;5.68;;;1.50;;